Time;durP1;ratioP1;P1;durP2;ratioP2;P2;SDS_P1;SDS_P2;PMS_P1;PMS_P2;Temp;Humidity;BMP_temperature;BMP_pressure;BME280_temperature;BME280_humidity;BME280_pressure;Samples;Min_cycle;Max_cycle;Signal;HPM_P1;HPM_P2
2021/10/16 00:00:07;;;;;;;0.20;0.20;;;;;;;13.68;100.00;98321.28;5031793;28;20025;-77
2021/10/16 00:02:32;;;;;;;0.10;0.10;;;;;;;13.65;100.00;98320.03;5031465;28;20061;-78
2021/10/16 00:04:58;;;;;;;0.20;0.20;;;;;;;13.64;100.00;98320.34;5031472;28;20033;-75
2021/10/16 00:07:23;;;;;;;0.30;0.30;;;;;;;13.60;100.00;98314.81;5032772;28;20401;-75
2021/10/16 00:09:49;;;;;;;0.73;0.73;;;;;;;13.59;100.00;98311.31;5032672;28;20042;-73
2021/10/16 00:12:14;;;;;;;2.90;1.55;;;;;;;13.57;100.00;98312.72;5032658;28;20032;-74
2021/10/16 00:14:41;;;;;;;0.45;0.45;;;;;;;13.53;100.00;98307.19;5031631;28;20038;-77
2021/10/16 00:17:06;;;;;;;0.57;0.57;;;;;;;13.55;100.00;98325.69;5031110;28;20029;-78
2021/10/16 00:19:31;;;;;;;1.73;1.63;;;;;;;13.46;100.00;98296.13;5031096;28;20052;-76
2021/10/16 00:21:57;;;;;;;2.30;2.17;;;;;;;13.55;100.00;98309.56;5033020;28;20524;-73
2021/10/16 00:24:22;;;;;;;1.13;1.13;;;;;;;13.52;100.00;98302.16;5032449;28;20064;-73
2021/10/16 00:26:48;;;;;;;0.22;0.22;;;;;;;13.54;100.00;98314.16;5046916;28;20022;-73
2021/10/16 00:29:13;;;;;;;1.45;0.93;;;;;;;13.52;100.00;98302.16;5031546;28;20029;-74
2021/10/16 00:31:39;;;;;;;1.10;1.10;;;;;;;13.56;100.00;98305.78;5030352;28;20029;-74
2021/10/16 00:34:04;;;;;;;0.82;0.82;;;;;;;13.51;100.00;98295.19;5030639;28;20037;-76
2021/10/16 00:36:29;;;;;;;0.50;0.50;;;;;;;13.53;100.00;98293.75;5030513;28;20025;-78
2021/10/16 00:38:55;;;;;;;0.52;0.52;;;;;;;13.55;100.00;98290.75;5031110;28;20026;-73
2021/10/16 00:41:20;;;;;;;0.82;0.82;;;;;;;13.57;100.00;98292.06;5047308;28;20057;-75
2021/10/16 00:43:46;;;;;;;0.75;0.75;;;;;;;13.54;100.00;98281.16;5031039;28;20036;-75
2021/10/16 00:46:11;;;;;;;1.40;0.95;;;;;;;13.57;100.00;98281.31;5032036;28;20113;-78
2021/10/16 00:48:37;;;;;;;0.40;0.40;;;;;;;13.59;100.00;98289.03;5047063;28;20115;-74
2021/10/16 00:51:02;;;;;;;0.98;0.98;;;;;;;13.60;100.00;98288.72;5030432;28;20059;-73
2021/10/16 00:53:28;;;;;;;5.78;3.10;;;;;;;13.59;100.00;98275.63;5030741;28;20084;-73
2021/10/16 00:55:53;;;;;;;0.50;0.50;;;;;;;13.61;100.00;98286.84;5031857;28;20104;-72
2021/10/16 00:58:20;;;;;;;1.35;1.25;;;;;;;13.54;100.00;98263.13;5031415;28;20025;-72
2021/10/16 01:00:46;;;;;;;1.85;1.40;;;;;;;13.59;100.00;98273.69;5032359;28;20117;-72
2021/10/16 01:03:11;;;;;;;0.73;0.73;;;;;;;13.60;100.00;98275.28;5030878;28;20513;-74
2021/10/16 01:05:37;;;;;;;8.68;3.38;;;;;;;13.58;100.00;98268.66;5030309;28;20120;-74
2021/10/16 01:08:04;;;;;;;0.55;0.55;;;;;;;13.58;100.00;98264.06;5031382;28;20025;-72
2021/10/16 01:10:30;;;;;;;1.10;1.10;;;;;;;13.57;100.00;98269.75;5031631;28;20106;-72
2021/10/16 01:12:58;;;;;;;0.70;0.70;;;;;;;13.60;100.00;98274.50;5031874;28;20051;-70
2021/10/16 01:15:25;;;;;;;0.40;0.40;;;;;;;13.55;100.00;98259.34;5031531;28;20034;-74
2021/10/16 01:17:50;;;;;;;0.25;0.25;;;;;;;13.61;100.00;98271.50;5031067;28;20037;-71
2021/10/16 01:20:22;;;;;;;0.20;0.20;;;;;;;13.64;100.00;98272.75;5030894;28;20025;-72
2021/10/16 01:22:49;;;;;;;1.05;1.02;;;;;;;13.66;100.00;98270.56;5031689;28;20026;-72
2021/10/16 01:25:21;;;;;;;0.47;0.47;;;;;;;13.68;100.00;98272.94;5030147;28;20101;-75
2021/10/16 01:27:47;;;;;;;0.38;0.38;;;;;;;13.70;100.00;98276.88;5029692;28;20037;-72
2021/10/16 01:30:25;;;;;;;0.73;0.52;;;;;;;13.71;100.00;98270.41;5030111;28;20425;-80
2021/10/16 01:32:50;;;;;;;0.75;0.70;;;;;;;13.74;100.00;98269.78;5029916;28;20029;-80
2021/10/16 01:35:16;;;;;;;0.10;0.10;;;;;;;13.75;100.00;98270.56;5029710;28;20508;-74
2021/10/16 01:37:47;;;;;;;0.57;0.57;;;;;;;13.80;100.00;98275.00;5030021;28;20645;-74
2021/10/16 01:40:13;;;;;;;0.98;0.98;;;;;;;13.82;100.00;98278.94;5030837;28;20498;-75
2021/10/16 01:42:43;;;;;;;0.77;0.77;;;;;;;13.69;100.00;98261.06;5029860;28;20033;-73
2021/10/16 01:45:16;;;;;;;0.20;0.20;;;;;;;13.80;100.00;98267.72;5030855;28;20040;-74
2021/10/16 01:47:49;;;;;;;0.30;0.30;;;;;;;13.82;100.00;98265.50;5031522;28;20033;-74
2021/10/16 01:50:16;;;;;;;0.38;0.38;;;;;;;13.84;100.00;98268.69;5029715;28;20025;-76
2021/10/16 01:52:41;;;;;;;2.08;0.93;;;;;;;13.85;100.00;98262.16;5029933;28;20126;-76
2021/10/16 01:55:07;;;;;;;0.55;0.55;;;;;;;13.84;100.00;98263.31;5030918;28;20067;-76
2021/10/16 01:57:33;;;;;;;0.38;0.38;;;;;;;13.84;100.00;98257.13;5030969;28;20056;-77
2021/10/16 01:59:58;;;;;;;0.20;0.20;;;;;;;13.85;100.00;98264.09;5029861;28;20567;-79
2021/10/16 02:02:23;;;;;;;0.10;0.10;;;;;;;13.88;100.00;98258.09;5029330;28;20039;-77
2021/10/16 02:04:49;;;;;;;0.63;0.63;;;;;;;13.85;100.00;98256.78;5031441;28;20036;-75
2021/10/16 02:07:14;;;;;;;0.08;0.08;;;;;;;13.89;100.00;98251.56;5029520;28;20079;-77
2021/10/16 02:09:40;;;;;;;0.73;0.73;;;;;;;13.87;100.00;98259.19;5029696;28;20026;-76
2021/10/16 02:12:05;;;;;;;1.67;0.82;;;;;;;13.79;100.00;98252.69;5028966;28;20036;-74
2021/10/16 02:14:31;;;;;;;0.30;0.30;;;;;;;13.86;100.00;98265.66;5030623;28;20067;-75
2021/10/16 02:16:57;;;;;;;0.63;0.63;;;;;;;13.85;100.00;98248.72;5029668;28;20025;-74
2021/10/16 02:19:23;;;;;;;0.10;0.10;;;;;;;13.89;100.00;98265.81;5030709;28;20028;-73
2021/10/16 02:21:48;;;;;;;0.60;0.60;;;;;;;13.88;100.00;98250.81;5030942;28;20029;-73
2021/10/16 02:24:14;;;;;;;0.10;0.10;;;;;;;14.00;100.00;98265.50;5030411;28;20486;-74
2021/10/16 02:26:40;;;;;;;0.00;0.00;;;;;;;14.03;100.00;98262.19;5029227;28;20036;-74
2021/10/16 02:29:05;;;;;;;0.10;0.10;;;;;;;13.99;100.00;98255.84;5029579;28;20033;-74
2021/10/16 02:31:31;;;;;;;0.00;0.00;;;;;;;14.01;100.00;98254.44;5029605;28;20021;-73
2021/10/16 02:33:56;;;;;;;0.10;0.10;;;;;;;14.11;100.00;98272.13;5030710;28;20026;-73
2021/10/16 02:36:22;;;;;;;0.08;0.08;;;;;;;14.09;100.00;98267.06;5030831;28;20037;-72
2021/10/16 02:38:48;;;;;;;0.13;0.13;;;;;;;14.06;100.00;98265.03;5030680;28;20108;-74
2021/10/16 02:41:13;;;;;;;0.05;0.05;;;;;;;14.12;100.00;98270.22;5028755;28;20053;-74
2021/10/16 02:43:39;;;;;;;0.00;0.00;;;;;;;14.14;100.00;98268.03;5030417;28;20033;-74
2021/10/16 02:46:04;;;;;;;0.00;0.00;;;;;;;14.09;100.00;98266.28;5030517;28;20041;-73
2021/10/16 02:48:30;;;;;;;0.00;0.00;;;;;;;14.09;100.00;98264.38;5029212;28;20068;-74
2021/10/16 02:50:55;;;;;;;0.05;0.05;;;;;;;14.08;100.00;98268.16;5032703;28;20052;-73
2021/10/16 02:53:20;;;;;;;0.10;0.10;;;;;;;14.06;100.00;98275.78;5032976;28;20159;-71
2021/10/16 02:55:46;;;;;;;0.05;0.05;;;;;;;14.13;100.00;98287.94;5034258;28;20041;-73
2021/10/16 02:58:11;;;;;;;0.00;0.00;;;;;;;14.11;100.00;98288.28;5033755;28;20029;-74
2021/10/16 03:00:37;;;;;;;0.10;0.10;;;;;;;14.05;100.00;98276.09;5034500;28;20037;-72
2021/10/16 03:03:02;;;;;;;0.15;0.15;;;;;;;14.00;100.00;98268.97;5033932;28;20104;-72
2021/10/16 03:05:28;;;;;;;0.20;0.20;;;;;;;14.00;100.00;98268.19;5033780;28;20040;-73
2021/10/16 03:07:53;;;;;;;0.10;0.10;;;;;;;14.04;100.00;98266.44;5032946;28;20025;-76
2021/10/16 03:10:19;;;;;;;0.10;0.10;;;;;;;14.05;100.00;98252.69;5032646;28;20022;-72
2021/10/16 03:12:44;;;;;;;0.20;0.20;;;;;;;14.01;100.00;98241.00;5033398;28;20040;-73
2021/10/16 03:15:10;;;;;;;0.28;0.28;;;;;;;14.03;100.00;98233.38;5033614;28;20573;-73
2021/10/16 03:17:35;;;;;;;0.20;0.20;;;;;;;14.05;100.00;98233.88;5032753;28;20025;-72
2021/10/16 03:20:00;;;;;;;0.10;0.10;;;;;;;14.00;100.00;98225.97;5032783;28;20029;-72
2021/10/16 03:22:26;;;;;;;3.83;0.38;;;;;;;14.00;100.00;98234.03;5033600;28;20493;-72
2021/10/16 03:24:51;;;;;;;0.10;0.10;;;;;;;13.96;100.00;98249.19;5032485;28;20049;-72
2021/10/16 03:27:17;;;;;;;0.10;0.10;;;;;;;13.94;100.00;98267.56;5033649;28;20029;-73
2021/10/16 03:29:42;;;;;;;0.28;0.28;;;;;;;13.90;100.00;98270.09;5032217;28;20482;-71
2021/10/16 03:32:08;;;;;;;1.40;1.30;;;;;;;13.82;100.00;98265.50;5033640;28;20030;-72
2021/10/16 03:34:33;;;;;;;0.10;0.10;;;;;;;13.86;100.00;98279.09;5033369;28;20029;-71
2021/10/16 03:36:59;;;;;;;0.10;0.10;;;;;;;13.75;100.00;98257.13;5033426;28;20036;-71
2021/10/16 03:39:24;;;;;;;0.30;0.30;;;;;;;13.80;100.00;98254.28;5033245;28;20481;-73
2021/10/16 03:41:50;;;;;;;0.10;0.10;;;;;;;13.74;100.00;98242.09;5033813;28;20071;-73
2021/10/16 03:44:15;;;;;;;0.20;0.20;;;;;;;13.77;100.00;98228.06;5032358;28;20038;-72
2021/10/16 03:46:41;;;;;;;0.40;0.40;;;;;;;13.73;100.00;98225.19;5033064;28;20447;-71
2021/10/16 03:49:06;;;;;;;0.03;0.03;;;;;;;13.74;100.00;98218.72;5030983;28;20040;-72
2021/10/16 03:51:32;;;;;;;0.00;0.00;;;;;;;13.87;100.00;98240.38;5033218;28;20445;-73
2021/10/16 03:53:58;;;;;;;0.45;0.45;;;;;;;13.80;100.00;98216.66;5033464;28;20498;-73
2021/10/16 03:56:24;;;;;;;0.10;0.10;;;;;;;13.87;100.00;98227.72;5033061;28;20026;-73
2021/10/16 03:58:49;;;;;;;0.10;0.10;;;;;;;13.82;100.00;98205.56;5031990;28;20056;-74
2021/10/16 04:01:15;;;;;;;0.08;0.08;;;;;;;13.90;100.00;98210.97;5030795;28;20103;-71
2021/10/16 04:03:40;;;;;;;0.10;0.10;;;;;;;13.89;100.00;98209.38;5032799;28;20493;-72
2021/10/16 04:06:06;;;;;;;0.10;0.10;;;;;;;13.85;100.00;98208.41;5033210;28;20457;-72
2021/10/16 04:08:32;;;;;;;0.08;0.08;;;;;;;13.92;100.00;98235.59;5032734;28;20037;-75
2021/10/16 04:10:57;;;;;;;0.00;0.00;;;;;;;13.77;100.00;98231.50;5031921;28;20056;-74
2021/10/16 04:13:23;;;;;;;0.00;0.00;;;;;;;13.75;100.00;98249.84;5031147;28;20427;-73
2021/10/16 04:15:48;;;;;;;0.68;0.68;;;;;;;13.69;100.00;98255.69;5031270;28;20036;-73
2021/10/16 04:18:14;;;;;;;0.80;0.80;;;;;;;13.67;100.00;98264.09;5031393;28;20029;-76
2021/10/16 04:20:39;;;;;;;0.63;0.63;;;;;;;13.61;100.00;98263.44;5031691;28;20030;-75
2021/10/16 04:23:05;;;;;;;0.63;0.63;;;;;;;13.59;100.00;98259.50;5031720;28;20042;-75
2021/10/16 04:25:31;;;;;;;0.10;0.10;;;;;;;13.54;100.00;98252.38;5031292;28;20033;-75
2021/10/16 04:27:56;;;;;;;0.70;0.70;;;;;;;13.54;100.00;98255.06;5032477;28;20033;-76
2021/10/16 04:30:22;;;;;;;0.00;0.00;;;;;;;13.54;100.00;98256.97;5031220;28;20033;-84
2021/10/16 04:32:47;;;;;;;0.10;0.10;;;;;;;13.45;100.00;98260.44;5031305;28;20036;-74
2021/10/16 04:35:13;;;;;;;0.75;0.68;;;;;;;13.47;100.00;98252.03;5032296;28;20025;-75
2021/10/16 04:37:39;;;;;;;0.00;0.00;;;;;;;13.47;100.00;98253.94;5031705;28;20167;-79
2021/10/16 04:40:22;;;;;;;0.03;0.03;;;;;;;13.48;100.00;98250.94;5030874;28;20132;-78
2021/10/16 04:42:49;;;;;;;1.00;1.00;;;;;;;13.50;100.00;98250.63;5030333;28;20116;-83
2021/10/16 04:45:15;;;;;;;0.08;0.08;;;;;;;13.48;100.00;98256.31;5030684;28;20128;-76
2021/10/16 04:47:41;;;;;;;1.88;1.75;;;;;;;13.47;100.00;98252.03;5030563;28;20375;-77
2021/10/16 04:50:08;;;;;;;0.10;0.10;;;;;;;13.50;100.00;98251.44;5030926;28;20060;-73
2021/10/16 04:52:34;;;;;;;0.00;0.00;;;;;;;13.41;100.00;98239.88;5031651;28;20033;-73
2021/10/16 04:55:00;;;;;;;0.08;0.08;;;;;;;13.50;100.00;98251.44;5031323;28;20033;-73
2021/10/16 04:57:26;;;;;;;0.08;0.08;;;;;;;13.45;100.00;98243.50;5031238;28;20098;-73
2021/10/16 04:59:51;;;;;;;0.08;0.08;;;;;;;13.50;100.00;98254.13;5031339;28;20090;-72
2021/10/16 05:02:17;;;;;;;0.00;0.00;;;;;;;13.44;100.00;98250.00;5031585;28;20021;-73
2021/10/16 05:04:42;;;;;;;0.00;0.00;;;;;;;13.52;100.00;98262.63;5031944;28;20421;-73
2021/10/16 05:07:07;;;;;;;0.10;0.10;;;;;;;13.52;100.00;98265.31;5032016;28;20071;-73
2021/10/16 05:09:33;;;;;;;0.28;0.28;;;;;;;13.51;100.00;98257.59;5030526;28;20029;-72
2021/10/16 05:11:59;;;;;;;0.10;0.10;;;;;;;13.56;100.00;98270.84;5031504;28;20037;-74
2021/10/16 05:14:24;;;;;;;0.00;0.00;;;;;;;13.58;100.00;98280.19;5019015;28;20112;-74
2021/10/16 05:16:49;;;;;;;0.10;0.10;;;;;;;13.56;100.00;98279.72;5010915;28;20029;-79
2021/10/16 05:19:15;;;;;;;0.10;0.10;;;;;;;13.59;100.00;98279.06;5029472;28;20464;-76
2021/10/16 05:21:40;;;;;;;0.10;0.10;;;;;;;13.56;100.00;98273.53;5031990;28;20383;-74
2021/10/16 05:24:06;;;;;;;0.00;0.00;;;;;;;13.59;100.00;98271.00;5030994;28;20060;-75
2021/10/16 05:26:31;;;;;;;0.10;0.10;;;;;;;13.68;100.00;98294.41;5029699;28;20648;-75
2021/10/16 05:28:57;;;;;;;0.38;0.38;;;;;;;13.66;100.00;98285.88;5027460;28;20112;-74
2021/10/16 05:31:23;;;;;;;0.05;0.05;;;;;;;13.75;100.00;98305.50;5017566;28;20379;-74
2021/10/16 05:33:49;;;;;;;0.10;0.10;;;;;;;13.79;100.00;98314.50;5029371;28;20088;-74
2021/10/16 05:36:15;;;;;;;0.08;0.08;;;;;;;13.81;100.00;98311.50;5030114;28;20048;-73
2021/10/16 05:38:40;;;;;;;0.10;0.10;;;;;;;13.82;100.00;98321.94;5031657;28;20045;-75
2021/10/16 05:41:06;;;;;;;0.20;0.20;;;;;;;13.82;100.00;98315.75;5031214;28;20521;-73
2021/10/16 05:43:31;;;;;;;0.10;0.10;;;;;;;13.90;100.00;98329.22;5031262;28;20432;-75
2021/10/16 05:45:58;;;;;;;0.10;0.10;;;;;;;13.86;100.00;98324.78;5031270;28;20025;-74
2021/10/16 05:48:24;;;;;;;4.03;0.98;;;;;;;13.91;100.00;98330.81;5030726;28;20026;-72
2021/10/16 05:50:49;;;;;;;0.10;0.10;;;;;;;13.96;100.00;98340.59;5026098;28;20489;-79
2021/10/16 05:53:15;;;;;;;0.10;0.10;;;;;;;13.95;100.00;98344.38;5020938;28;20444;-78
2021/10/16 05:55:40;;;;;;;0.00;0.00;;;;;;;13.89;100.00;98337.59;5029513;28;20379;-76
2021/10/16 05:58:06;;;;;;;0.00;0.00;;;;;;;13.87;100.00;98345.97;5025530;28;20482;-76
2021/10/16 06:00:31;;;;;;;0.00;0.00;;;;;;;13.92;100.00;98351.19;5026193;28;20036;-75
2021/10/16 06:02:58;;;;;;;0.00;0.00;;;;;;;13.87;100.00;98345.97;5028715;28;20025;-72
2021/10/16 06:05:24;;;;;;;0.10;0.10;;;;;;;13.79;100.00;98344.06;5029177;28;20108;-78
2021/10/16 06:07:49;;;;;;;0.17;0.17;;;;;;;13.83;100.00;98347.72;5029301;28;20128;-75
2021/10/16 06:10:14;;;;;;;0.00;0.00;;;;;;;13.80;100.00;98345.66;5030087;28;20470;-75
2021/10/16 06:12:40;;;;;;;0.15;0.15;;;;;;;13.76;100.00;98337.41;5030835;28;20488;-75
2021/10/16 06:15:06;;;;;;;0.00;0.00;;;;;;;13.85;100.00;98355.47;5028768;28;20029;-80
2021/10/16 06:17:31;;;;;;;0.10;0.10;;;;;;;13.97;100.00;98361.00;5028908;28;20113;-76
2021/10/16 06:19:57;;;;;;;0.00;0.00;;;;;;;13.98;100.00;98361.81;5029168;28;20084;-76
2021/10/16 06:22:22;;;;;;;0.10;0.10;;;;;;;13.99;100.00;98363.38;5029500;28;20032;-75
2021/10/16 06:24:47;;;;;;;0.00;0.00;;;;;;;13.97;100.00;98365.59;5031332;28;20034;-76
2021/10/16 06:27:13;;;;;;;0.10;0.10;;;;;;;14.02;100.00;98374.28;5034847;28;20022;-76
2021/10/16 06:29:38;;;;;;;0.00;0.00;;;;;;;14.04;100.00;98371.31;5033277;28;20025;-77
2021/10/16 06:32:04;;;;;;;0.10;0.10;;;;;;;14.05;100.00;98372.88;5034246;28;20112;-82
2021/10/16 06:34:29;;;;;;;0.08;0.08;;;;;;;14.07;100.00;98379.53;5029030;28;20092;-80
2021/10/16 06:36:55;;;;;;;0.00;0.00;;;;;;;14.13;100.00;98387.44;5013631;28;20026;-82
2021/10/16 06:39:20;;;;;;;0.10;0.10;;;;;;;14.14;100.00;98381.72;5013074;28;20034;-81
2021/10/16 06:41:45;;;;;;;0.00;0.00;;;;;;;14.15;100.00;98383.31;5013631;28;20025;-82
2021/10/16 06:44:11;;;;;;;0.03;0.03;;;;;;;14.20;100.00;98395.81;5013671;28;20026;-82
2021/10/16 06:46:36;;;;;;;0.10;0.10;;;;;;;14.20;100.00;98396.59;5027521;28;20513;-82
2021/10/16 06:49:02;;;;;;;0.10;0.10;;;;;;;14.26;100.00;98397.25;5032971;28;20040;-75
2021/10/16 06:51:27;;;;;;;0.00;0.00;;;;;;;14.28;100.00;98383.47;5032870;28;20026;-82
2021/10/16 06:53:53;;;;;;;0.00;0.00;;;;;;;14.32;100.00;98398.66;5033067;28;20037;-83
2021/10/16 06:56:18;;;;;;;0.00;0.00;;;;;;;14.31;100.00;98391.69;5033186;28;20026;-76
2021/10/16 06:58:43;;;;;;;0.08;0.08;;;;;;;14.42;100.00;98405.63;5032898;28;20026;-82
2021/10/16 07:01:09;;;;;;;0.10;0.10;;;;;;;14.43;100.00;98401.84;5025112;28;20030;-81
2021/10/16 07:03:34;;;;;;;0.10;0.10;;;;;;;14.42;100.00;98413.69;5032044;28;20083;-76
2021/10/16 07:06:00;;;;;;;0.20;0.20;;;;;;;14.44;100.00;98410.69;5026970;28;20022;-74
2021/10/16 07:08:29;;;;;;;0.10;0.10;;;;;;;14.45;100.00;98412.28;5026108;28;20668;-73
2021/10/16 07:10:58;;;;;;;0.00;0.00;;;;;;;14.50;100.00;98410.22;5015294;28;20434;-74
2021/10/16 07:13:24;;;;;;;0.10;0.10;;;;;;;14.55;100.00;98425.41;5031440;28;20033;-74
2021/10/16 07:15:50;;;;;;;0.10;0.10;;;;;;;14.51;100.00;98411.81;5032862;28;20035;-74
2021/10/16 07:18:16;;;;;;;0.98;0.90;;;;;;;14.61;100.00;98426.03;5022243;28;20029;-81
2021/10/16 07:20:41;;;;;;;0.10;0.10;;;;;;;14.56;100.00;98416.22;5032323;28;20108;-83
2021/10/16 07:23:07;;;;;;;0.00;0.00;;;;;;;14.60;100.00;98421.75;5016579;28;20037;-78
2021/10/16 07:25:33;;;;;;;0.20;0.20;;;;;;;14.54;100.00;98426.53;5028162;28;20103;-78
2021/10/16 07:27:58;;;;;;;0.00;0.00;;;;;;;14.56;100.00;98430.47;5031176;28;20033;-87
2021/10/16 07:30:24;;;;;;;0.05;0.05;;;;;;;14.51;100.00;98430.66;5036451;28;20095;-77
2021/10/16 07:32:50;;;;;;;0.38;0.32;;;;;;;14.40;100.00;98429.34;5030980;28;20114;-77
2021/10/16 07:35:16;;;;;;;0.55;0.55;;;;;;;14.29;100.00;98420.81;5033183;28;20033;-76
2021/10/16 07:37:41;;;;;;;0.10;0.10;;;;;;;14.28;100.00;98430.00;5031391;28;20037;-78
2021/10/16 07:40:07;;;;;;;0.22;0.22;;;;;;;14.25;100.00;98434.09;5031535;28;20075;-78
2021/10/16 07:42:33;;;;;;;0.73;0.68;;;;;;;14.20;100.00;98444.22;5031827;28;20057;-78
2021/10/16 07:44:58;;;;;;;0.10;0.10;;;;;;;14.17;100.00;98439.47;5032303;28;20485;-78
2021/10/16 07:47:26;;;;;;;0.85;0.85;;;;;;;14.12;100.00;98447.69;5031955;28;20088;-78
2021/10/16 07:49:52;;;;;;;0.00;0.00;;;;;;;14.12;100.00;98455.75;5031905;28;20036;-78
2021/10/16 07:52:18;;;;;;;0.10;0.10;;;;;;;14.05;100.00;98453.53;5032181;28;20522;-78
2021/10/16 07:54:43;;;;;;;0.10;0.10;;;;;;;14.04;100.00;98454.66;5031644;28;20108;-77
2021/10/16 07:57:09;;;;;;;0.10;0.10;;;;;;;14.01;100.00;98457.94;5032056;28;20036;-78
2021/10/16 07:59:34;;;;;;;0.10;0.10;;;;;;;14.00;100.00;98462.53;5032763;28;20560;-77
2021/10/16 08:02:00;;;;;;;0.03;0.03;;;;;;;14.01;100.00;98466.00;5031879;28;20025;-76
2021/10/16 08:04:25;;;;;;;0.00;0.00;;;;;;;14.01;100.00;98472.19;5031259;28;20025;-77
2021/10/16 08:06:51;;;;;;;0.00;0.00;;;;;;;14.01;100.00;98464.13;5031775;28;20033;-77
2021/10/16 08:09:16;;;;;;;0.10;0.10;;;;;;;14.03;100.00;98467.28;5032714;28;20083;-77
2021/10/16 08:11:41;;;;;;;0.00;0.00;;;;;;;14.05;100.00;98469.66;5031372;28;20508;-76
2021/10/16 08:14:07;;;;;;;0.15;0.15;;;;;;;14.05;100.00;98464.31;5031542;28;20029;-77
2021/10/16 08:16:32;;;;;;;0.30;0.30;;;;;;;13.99;100.00;98468.22;5031376;28;20064;-77
2021/10/16 08:18:58;;;;;;;0.10;0.10;;;;;;;14.02;100.00;98470.28;5031567;28;20114;-77
2021/10/16 08:21:24;;;;;;;0.00;0.00;;;;;;;14.05;100.00;98475.06;5031538;28;20111;-77
2021/10/16 08:23:49;;;;;;;0.10;0.10;;;;;;;14.04;100.00;98474.25;5031608;28;20631;-76
2021/10/16 08:26:15;;;;;;;0.00;0.00;;;;;;;14.04;100.00;98484.22;5032910;28;20441;-77
2021/10/16 08:28:40;;;;;;;0.05;0.05;;;;;;;14.07;100.00;98481.69;5031059;28;20124;-78
2021/10/16 08:31:06;;;;;;;0.10;0.10;;;;;;;14.04;100.00;98476.16;5031282;28;20033;-77
2021/10/16 08:33:34;;;;;;;0.22;0.22;;;;;;;14.06;100.00;98474.72;5031000;28;20060;-77
2021/10/16 08:36:01;;;;;;;0.03;0.03;;;;;;;14.09;100.00;98481.38;5031282;28;20543;-78
2021/10/16 08:38:27;;;;;;;0.03;0.03;;;;;;;14.08;100.00;98479.78;5031267;28;20366;-77
2021/10/16 08:40:52;;;;;;;0.40;0.40;;;;;;;14.05;100.00;98469.66;5030987;28;20216;-77
2021/10/16 08:43:19;;;;;;;0.40;0.40;;;;;;;14.19;100.00;98491.03;5031080;28;20482;-77
2021/10/16 08:45:45;;;;;;;0.00;0.00;;;;;;;14.23;100.00;98497.38;5031056;28;20091;-77
2021/10/16 08:48:12;;;;;;;0.10;0.10;;;;;;;14.29;100.00;98489.97;5030070;28;20028;-77
2021/10/16 08:50:38;;;;;;;0.00;0.00;;;;;;;14.29;100.00;98498.03;5030720;28;20111;-77
2021/10/16 08:53:04;;;;;;;0.85;0.60;;;;;;;14.33;100.00;98491.72;5030960;28;20060;-77
2021/10/16 08:55:29;;;;;;;0.43;0.43;;;;;;;14.39;100.00;98498.53;5030616;28;20030;-77
2021/10/16 08:57:56;;;;;;;0.10;0.10;;;;;;;14.40;100.00;98496.59;5030954;28;20108;-77
2021/10/16 09:00:42;;;;;;;0.15;0.15;;;;;;;14.50;100.00;98501.69;5030918;28;20037;-77
2021/10/16 09:03:24;;;;;;;0.10;0.10;;;;;;;14.50;100.00;98490.13;5032009;28;20021;-77
2021/10/16 09:06:27;;;;;;;0.10;0.10;;;;;;;14.56;100.00;98505.81;5031554;28;20343;-77
2021/10/16 09:08:59;;;;;;;0.00;0.00;;;;;;;14.62;100.00;98508.34;5032288;28;20391;-77
2021/10/16 09:11:44;;;;;;;1.13;0.73;;;;;;;14.64;100.00;98501.53;5030597;28;20033;-77
2021/10/16 09:14:28;;;;;;;0.10;0.10;;;;;;;14.66;100.00;98502.06;5032228;28;20025;-77
2021/10/16 09:17:05;;;;;;;0.00;0.00;;;;;;;14.68;100.00;98513.31;5030567;28;20430;-76
2021/10/16 09:19:32;;;;;;;0.20;0.20;;;;;;;14.72;100.00;98519.63;5031537;28;20032;-77
2021/10/16 09:22:08;;;;;;;0.40;0.40;;;;;;;14.75;100.00;98507.44;5031507;28;20477;-77
2021/10/16 09:24:39;;;;;;;0.00;0.00;;;;;;;14.79;100.00;98521.81;5029828;28;20033;-76
2021/10/16 09:27:25;;;;;;;0.10;0.10;;;;;;;14.84;100.00;98523.56;5031350;28;20143;-76
2021/10/16 09:29:53;;;;;;;0.10;0.10;;;;;;;14.81;100.00;98518.84;5030476;28;20164;-76
2021/10/16 09:32:22;;;;;;;0.00;0.00;;;;;;;14.80;100.00;98515.34;5030173;28;20388;-77
2021/10/16 09:34:49;;;;;;;0.00;0.00;;;;;;;14.92;100.00;98533.56;5029853;28;20033;-77
2021/10/16 09:37:19;;;;;;;0.00;0.00;;;;;;;14.91;99.41;98525.81;5031434;28;20493;-77
2021/10/16 09:39:48;;;;;;;0.20;0.20;;;;;;;14.97;99.62;98533.41;5030941;28;20528;-78
2021/10/16 09:42:14;;;;;;;;;;;;;;;15.02;99.59;98535.13;5030507;28;20112;-77
2021/10/16 09:44:40;;;;;;;0.10;0.10;;;;;;;15.00;98.35;98530.06;5029780;28;19983;-76
2021/10/16 09:47:18;;;;;;;0.47;0.47;;;;;;;14.98;96.14;98532.28;5029838;28;20410;-76
2021/10/16 09:49:54;;;;;;;0.10;0.10;;;;;;;14.90;94.82;98525.00;5029779;28;20156;-76
2021/10/16 09:52:20;;;;;;;0.10;0.10;;;;;;;14.91;96.25;98525.81;5029951;28;20063;-78
2021/10/16 09:54:50;;;;;;;0.10;0.10;;;;;;;14.94;95.19;98536.72;5030747;28;20036;-78
2021/10/16 09:57:20;;;;;;;0.10;0.10;;;;;;;14.96;95.49;98536.41;5029952;28;20406;-78
2021/10/16 09:59:45;;;;;;;0.10;0.10;;;;;;;14.95;94.68;98542.91;5029323;28;20035;-77
2021/10/16 10:02:12;;;;;;;0.10;0.10;;;;;;;14.92;95.47;98536.25;5030054;28;20030;-77
2021/10/16 10:04:48;;;;;;;0.10;0.10;;;;;;;14.92;95.69;98527.41;5030948;28;20033;-77
2021/10/16 10:07:16;;;;;;;0.00;0.00;;;;;;;14.91;94.73;98539.28;5030293;28;20032;-78
2021/10/16 10:09:43;;;;;;;0.00;0.00;;;;;;;14.91;94.95;98541.97;5029870;28;20662;-77
2021/10/16 10:12:12;;;;;;;0.00;0.00;;;;;;;14.92;94.78;98547.03;5031368;28;20394;-77
2021/10/16 10:14:41;;;;;;;0.00;0.00;;;;;;;14.92;94.45;98544.34;5030383;28;20034;-77
2021/10/16 10:17:08;;;;;;;0.10;0.10;;;;;;;14.93;95.68;98545.91;5029679;28;20045;-78
2021/10/16 10:19:46;;;;;;;0.10;0.10;;;;;;;14.86;95.55;98527.53;5029483;28;20060;-77
2021/10/16 10:22:19;;;;;;;0.10;0.10;;;;;;;14.86;96.02;98537.53;5030672;28;20033;-78
2021/10/16 10:24:47;;;;;;;0.10;0.10;;;;;;;14.82;96.16;98537.38;5031002;28;20037;-77
2021/10/16 10:27:15;;;;;;;0.00;0.00;;;;;;;14.87;96.28;98544.50;5029613;28;20033;-77
2021/10/16 10:29:42;;;;;;;;;;;;;;;14.92;95.93;98554.31;5030799;28;20029;-77
2021/10/16 10:32:19;;;;;;;0.00;0.00;;;;;;;14.88;95.67;98551.47;5030426;28;20032;-77
2021/10/16 10:35:01;;;;;;;0.17;0.17;;;;;;;14.90;95.42;98557.31;5028825;28;20120;-77
2021/10/16 10:37:29;;;;;;;0.10;0.10;;;;;;;14.87;95.34;98553.34;5029572;28;20025;-77
2021/10/16 10:39:58;;;;;;;;;;;;;;;14.87;94.51;98556.03;5029447;28;20123;-78
2021/10/16 10:42:24;;;;;;;0.25;0.25;;;;;;;14.79;95.32;98537.97;5029531;28;20309;-76
2021/10/16 10:44:55;;;;;;;0.30;0.30;;;;;;;14.81;94.61;98549.22;5028813;28;20029;-77
2021/10/16 10:47:34;;;;;;;0.22;0.15;;;;;;;14.83;94.83;98551.59;5029331;28;20551;-77
2021/10/16 10:50:03;;;;;;;0.00;0.00;;;;;;;14.77;93.51;98547.47;5029427;28;20069;-76
2021/10/16 10:53:01;;;;;;;0.32;0.32;;;;;;;14.75;93.41;98550.50;5030805;28;20113;-77
2021/10/16 10:55:26;;;;;;;;;;;;;;;14.75;93.90;98549.72;5029767;28;20116;-76
2021/10/16 10:58:00;;;;;;;0.00;0.00;;;;;;;14.64;93.41;98535.75;5029158;28;20008;-76
2021/10/16 11:00:29;;;;;;;0.10;0.10;;;;;;;14.69;93.38;98541.78;5029346;28;20036;-77
2021/10/16 11:02:54;;;;;;;0.00;0.00;;;;;;;14.67;93.95;98544.00;5029151;28;20052;-78
2021/10/16 11:05:30;;;;;;;0.10;0.10;;;;;;;14.70;94.55;98537.97;5030600;28;20026;-77
2021/10/16 11:08:25;;;;;;;1.20;0.63;;;;;;;14.75;94.13;98528.97;5028922;28;20579;-76
2021/10/16 11:10:58;;;;;;;0.68;0.68;;;;;;;14.80;94.55;98536.09;5017534;28;20456;-78
2021/10/16 11:13:23;;;;;;;0.10;0.10;;;;;;;14.85;94.23;98541.31;5032835;28;20497;-77
2021/10/16 11:15:58;;;;;;;0.10;0.10;;;;;;;14.94;94.16;98533.22;5032606;28;20030;-77
2021/10/16 11:18:24;;;;;;;0.10;0.10;;;;;;;14.98;92.89;98536.91;5032741;28;20060;-77
2021/10/16 11:20:49;;;;;;;0.98;0.32;;;;;;;14.96;92.95;98523.72;5034139;28;20142;-77
2021/10/16 11:23:23;;;;;;;0.10;0.10;;;;;;;15.08;92.79;98536.56;5033736;28;20072;-77
2021/10/16 11:25:55;;;;;;;0.52;0.52;;;;;;;15.10;91.81;98536.22;5033470;28;20466;-77